Time;durP1;ratioP1;P1;durP2;ratioP2;P2;SDS_P1;SDS_P2;PMS_P1;PMS_P2;Temp;Humidity;BMP_temperature;BMP_pressure;BME280_temperature;BME280_humidity;BME280_pressure;Samples;Min_cycle;Max_cycle;Signal;HPM_P1;HPM_P2
2024/02/20 00:00:09;;;;;;;4.90;2.07;;;8.10;26.30;;;;;;5015009;28;20487;-69
2024/02/20 00:02:35;;;;;;;3.17;1.80;;;8.10;26.60;;;;;;5013007;28;20194;-69
2024/02/20 00:05:01;;;;;;;2.53;1.50;;;8.00;26.80;;;;;;5013792;28;20799;-69
2024/02/20 00:07:27;;;;;;;3.60;1.93;;;8.00;27.60;;;;;;5013953;28;20460;-69
2024/02/20 00:09:52;;;;;;;2.93;1.77;;;8.00;28.70;;;;;;5013567;28;20246;-68
2024/02/20 00:12:18;;;;;;;3.63;2.00;;;8.00;28.60;;;;;;5013605;28;20438;-69
2024/02/20 00:14:44;;;;;;;3.13;1.90;;;7.90;30.10;;;;;;5013555;28;20197;-69
2024/02/20 00:17:10;;;;;;;4.13;1.70;;;8.00;29.50;;;;;;5013432;28;20179;-69
2024/02/20 00:19:36;;;;;;;3.60;1.67;;;7.90;30.10;;;;;;5013598;28;20170;-69
2024/02/20 00:22:01;;;;;;;3.80;1.63;;;7.90;29.70;;;;;;5011687;28;20417;-69
2024/02/20 00:24:27;;;;;;;3.13;1.90;;;7.90;30.20;;;;;;5013219;28;20202;-69
2024/02/20 00:26:53;;;;;;;3.63;2.30;;;8.00;30.20;;;;;;5013093;28;20199;-69
2024/02/20 00:29:18;;;;;;;2.87;1.87;;;7.90;30.10;;;;;;5012769;28;20170;-69
2024/02/20 00:31:44;;;;;;;3.37;1.40;;;7.90;30.70;;;;;;5012731;28;20484;-69
2024/02/20 00:34:09;;;;;;;2.30;1.60;;;7.90;30.10;;;;;;5012776;28;20255;-69
2024/02/20 00:36:35;;;;;;;3.77;1.70;;;7.90;30.80;;;;;;5012991;28;20183;-69
2024/02/20 00:39:02;;;;;;;3.50;2.10;;;7.90;31.50;;;;;;5012486;28;20601;-69
2024/02/20 00:41:28;;;;;;;6.10;2.80;;;8.00;31.50;;;;;;5012896;28;20186;-69
2024/02/20 00:43:54;;;;;;;2.60;1.67;;;8.00;31.80;;;;;;5012778;28;20438;-69
2024/02/20 00:46:20;;;;;;;2.83;1.70;;;7.90;32.80;;;;;;5012759;28;20457;-68
2024/02/20 00:48:50;;;;;;;3.77;2.20;;;7.80;32.50;;;;;;5012566;28;20214;-68
2024/02/20 00:51:18;;;;;;;3.63;2.50;;;7.80;34.90;;;;;;5012743;28;20501;-68
2024/02/20 00:53:44;;;;;;;3.47;2.23;;;7.90;33.80;;;;;;5012638;28;20484;-68
2024/02/20 00:56:11;;;;;;;4.40;1.97;;;7.80;32.50;;;;;;5012983;28;20429;-69
2024/02/20 00:58:41;;;;;;;2.53;1.50;;;7.80;33.90;;;;;;5012281;28;20460;-69
2024/02/20 01:01:10;;;;;;;4.13;2.23;;;7.70;34.20;;;;;;5012168;28;20447;-69
2024/02/20 01:03:37;;;;;;;3.83;2.27;;;7.70;34.20;;;;;;5011298;28;20781;-69
2024/02/20 01:06:02;;;;;;;4.70;2.10;;;7.70;35.60;;;;;;5012503;28;20428;-68
2024/02/20 01:08:28;;;;;;;4.83;2.97;;;7.70;35.20;;;;;;5012390;28;20413;-68
2024/02/20 01:10:55;;;;;;;2.93;2.27;;;7.60;35.10;;;;;;5011998;28;20683;-69
2024/02/20 01:13:20;;;;;;;4.33;2.43;;;7.60;35.40;;;;;;5012185;28;20180;-69
2024/02/20 01:15:46;;;;;;;2.70;1.43;;;7.60;35.10;;;;;;5012539;28;20523;-69
2024/02/20 01:18:11;;;;;;;3.57;2.50;;;7.60;36.10;;;;;;5012417;28;20524;-69
2024/02/20 01:20:38;;;;;;;2.70;1.90;;;7.60;36.30;;;;;;5011928;28;20186;-69
2024/02/20 01:23:04;;;;;;;3.47;1.90;;;7.60;35.10;;;;;;5012242;28;20575;-70
2024/02/20 01:25:30;;;;;;;4.17;2.30;;;7.60;35.50;;;;;;5010719;28;20444;-69
2024/02/20 01:27:55;;;;;;;3.40;1.70;;;7.50;36.10;;;;;;5012198;28;20214;-69
2024/02/20 01:30:21;;;;;;;3.03;1.93;;;7.50;37.10;;;;;;5011761;28;20546;-69
2024/02/20 01:32:48;;;;;;;3.37;2.00;;;7.50;37.90;;;;;;5011193;28;20180;-69
2024/02/20 01:35:14;;;;;;;3.30;1.70;;;7.60;36.90;;;;;;5012209;28;20197;-69
2024/02/20 01:37:41;;;;;;;3.83;1.93;;;7.70;36.20;;;;;;5012007;28;20421;-70
2024/02/20 01:40:08;;;;;;;5.00;2.77;;;7.60;36.20;;;;;;5011742;28;20421;-70
2024/02/20 01:42:35;;;;;;;2.63;1.70;;;7.60;35.80;;;;;;5012026;28;20414;-70
2024/02/20 01:45:01;;;;;;;3.30;2.20;;;7.60;36.20;;;;;;5012060;28;20527;-68
2024/02/20 01:47:27;;;;;;;2.63;1.67;;;7.60;35.20;;;;;;5010695;28;20555;-69
2024/02/20 01:49:53;;;;;;;2.53;1.83;;;7.50;34.40;;;;;;5011661;28;20558;-69
2024/02/20 01:52:19;;;;;;;4.43;2.30;;;7.60;34.50;;;;;;5011807;28;20210;-69
2024/02/20 01:54:46;;;;;;;3.97;1.80;;;7.70;34.10;;;;;;5035898;22;20515;-69
2024/02/20 01:57:12;;;;;;;4.63;1.60;;;7.70;34.50;;;;;;5028986;28;20185;-70
2024/02/20 01:59:37;;;;;;;2.80;1.70;;;7.70;34.60;;;;;;5030215;28;20406;-70
2024/02/20 02:02:03;;;;;;;3.30;1.60;;;7.70;33.80;;;;;;5030387;28;20235;-70
2024/02/20 02:04:29;;;;;;;6.57;2.57;;;7.60;34.00;;;;;;5030211;28;20427;-69
2024/02/20 02:06:54;;;;;;;3.73;2.10;;;7.50;35.00;;;;;;5028786;28;20613;-70
2024/02/20 02:09:20;;;;;;;3.60;2.03;;;7.60;35.70;;;;;;5030056;28;20207;-70
2024/02/20 02:11:48;;;;;;;2.73;2.00;;;7.60;35.60;;;;;;5030219;28;20182;-70
2024/02/20 02:14:14;;;;;;;6.13;2.50;;;7.60;35.10;;;;;;5030032;28;20204;-71
2024/02/20 02:16:39;;;;;;;2.90;1.97;;;7.60;35.70;;;;;;5030455;28;20761;-69
2024/02/20 02:19:05;;;;;;;4.27;2.23;;;7.70;35.30;;;;;;5030373;28;20490;-69
2024/02/20 02:21:31;;;;;;;3.10;2.00;;;7.60;33.90;;;;;;5028647;28;20186;-69
2024/02/20 02:23:56;;;;;;;3.83;2.00;;;7.60;32.90;;;;;;5029047;28;20214;-69
2024/02/20 02:26:25;;;;;;;4.10;1.83;;;7.60;33.30;;;;;;5028646;28;20264;-70
2024/02/20 02:28:50;;;;;;;3.03;1.70;;;7.60;34.10;;;;;;5028425;28;20516;-71
2024/02/20 02:31:18;;;;;;;3.53;2.17;;;7.60;34.50;;;;;;5030083;28;20474;-70
2024/02/20 02:33:46;;;;;;;2.87;1.97;;;7.50;35.00;;;;;;5030224;28;20193;-70
2024/02/20 02:36:14;;;;;;;4.40;1.87;;;7.50;35.60;;;;;;5028834;28;20424;-69
2024/02/20 02:38:40;;;;;;;3.93;2.17;;;7.60;34.90;;;;;;5030231;28;20416;-69
2024/02/20 02:41:05;;;;;;;3.00;1.87;;;7.60;34.90;;;;;;5030099;28;20471;-70
2024/02/20 02:43:31;;;;;;;3.17;2.40;;;7.60;34.70;;;;;;5028973;28;20185;-69
2024/02/20 02:45:57;;;;;;;3.20;1.93;;;7.60;35.20;;;;;;5049424;28;20181;-70
2024/02/20 02:48:22;;;;;;;3.20;1.73;;;7.70;34.50;;;;;;5034362;28;20254;-70
2024/02/20 02:50:48;;;;;;;3.07;1.90;;;7.60;33.50;;;;;;5033805;28;20281;-70
2024/02/20 02:53:14;;;;;;;4.10;1.57;;;7.60;34.10;;;;;;5034617;28;20194;-70
2024/02/20 02:55:39;;;;;;;2.60;1.53;;;7.60;32.50;;;;;;5036298;28;20627;-69
2024/02/20 02:58:06;;;;;;;3.37;2.30;;;7.60;33.70;;;;;;5035942;28;20192;-69
2024/02/20 03:00:34;;;;;;;2.00;1.20;;;7.70;33.30;;;;;;5034320;28;20207;-70
2024/02/20 03:03:00;;;;;;;3.10;1.67;;;7.70;33.00;;;;;;5033913;28;20507;-70
2024/02/20 03:05:26;;;;;;;4.00;2.20;;;7.70;31.70;;;;;;5032025;28;21013;-70
2024/02/20 03:07:54;;;;;;;3.47;1.90;;;7.70;31.30;;;;;;5031799;28;20288;-69
2024/02/20 03:10:20;;;;;;;4.77;1.80;;;7.70;31.20;;;;;;5031897;28;20443;-69
2024/02/20 03:12:45;;;;;;;3.60;1.50;;;7.80;30.70;;;;;;5033464;28;20416;-69
2024/02/20 03:15:11;;;;;;;4.73;1.83;;;7.80;29.40;;;;;;5032029;28;20535;-70
2024/02/20 03:17:43;;;;;;;2.90;1.70;;;7.80;29.30;;;;;;5031876;28;20269;-70
2024/02/20 03:20:14;;;;;;;3.43;1.70;;;7.70;29.50;;;;;;5033407;28;20159;-70
2024/02/20 03:22:43;;;;;;;4.73;2.10;;;7.60;29.10;;;;;;5033531;28;20459;-68
2024/02/20 03:25:11;;;;;;;2.53;1.67;;;7.50;29.90;;;;;;5032956;28;20467;-70
2024/02/20 03:27:37;;;;;;;2.90;1.67;;;7.50;29.90;;;;;;5032799;28;20513;-69
2024/02/20 03:30:04;;;;;;;3.90;2.23;;;7.50;29.90;;;;;;5031693;28;20419;-69
2024/02/20 03:32:29;;;;;;;2.53;1.70;;;7.40;29.30;;;;;;5048463;28;20173;-69
2024/02/20 03:34:55;;;;;;;3.23;1.90;;;7.40;29.00;;;;;;5032992;28;20965;-70
2024/02/20 03:37:21;;;;;;;5.93;1.50;;;7.50;29.40;;;;;;5031452;28;20260;-69
2024/02/20 03:39:46;;;;;;;4.90;2.97;;;7.50;28.50;;;;;;5031512;28;20537;-70
2024/02/20 03:42:17;;;;;;;3.67;1.70;;;7.50;27.60;;;;;;5032666;28;20184;-70
2024/02/20 03:44:43;;;;;;;4.10;2.47;;;7.50;28.10;;;;;;5032516;28;20656;-70
2024/02/20 03:47:08;;;;;;;3.50;2.20;;;7.40;28.50;;;;;;5030942;28;20474;-70
2024/02/20 03:49:34;;;;;;;3.83;1.77;;;7.50;27.90;;;;;;5030889;28;20416;-71
2024/02/20 03:52:00;;;;;;;3.30;2.20;;;7.50;27.80;;;;;;5032628;28;20550;-71
2024/02/20 03:54:26;;;;;;;4.90;2.30;;;7.50;26.70;;;;;;5031137;28;20464;-71
2024/02/20 03:56:51;;;;;;;2.67;1.90;;;7.40;24.40;;;;;;5046664;28;20552;-71
2024/02/20 03:59:17;;;;;;;4.27;2.57;;;7.40;26.00;;;;;;5030980;28;20189;-71
2024/02/20 04:01:42;;;;;;;4.57;2.53;;;7.40;25.80;;;;;;5031004;28;20183;-71
2024/02/20 04:04:10;;;;;;;4.77;2.40;;;7.50;24.00;;;;;;5032445;28;20280;-70
2024/02/20 04:06:35;;;;;;;5.70;2.03;;;7.40;24.40;;;;;;5031030;28;20202;-72
2024/02/20 04:09:03;;;;;;;3.30;2.30;;;7.40;25.80;;;;;;5031842;28;20428;-70
2024/02/20 04:11:38;;;;;;;4.83;2.10;;;7.30;25.70;;;;;;5030544;28;20803;-71
2024/02/20 04:14:03;;;;;;;2.93;2.03;;;7.30;26.60;;;;;;5030545;28;20447;-70
2024/02/20 04:16:29;;;;;;;5.67;2.93;;;7.30;26.60;;;;;;5032207;28;20938;-70
2024/02/20 04:18:54;;;;;;;3.00;1.63;;;7.30;26.40;;;;;;5031749;28;20627;-70
2024/02/20 04:21:20;;;;;;;6.03;2.83;;;7.30;26.70;;;;;;5031839;28;20726;-70
2024/02/20 04:23:46;;;;;;;5.50;2.80;;;7.30;26.70;;;;;;5030703;28;20616;-69
2024/02/20 04:26:15;;;;;;;4.20;2.00;;;7.30;26.70;;;;;;5031694;28;20175;-70
2024/02/20 04:28:40;;;;;;;3.97;2.87;;;7.30;26.80;;;;;;5030069;28;20424;-70
2024/02/20 04:31:06;;;;;;;7.17;2.47;;;7.10;28.00;;;;;;5030395;28;20574;-71
2024/02/20 04:33:34;;;;;;;4.70;2.70;;;7.20;28.10;;;;;;5031646;28;20173;-71
2024/02/20 04:36:00;;;;;;;4.40;2.47;;;7.20;28.00;;;;;;5031675;28;20207;-71
2024/02/20 04:38:26;;;;;;;9.23;2.20;;;7.20;28.70;;;;;;5031692;28;20418;-71
2024/02/20 04:40:54;;;;;;;4.30;1.57;;;7.10;28.00;;;;;;5030069;28;20670;-71
2024/02/20 04:43:20;;;;;;;3.57;2.20;;;7.10;28.60;;;;;;5031629;28;20560;-70
2024/02/20 04:45:46;;;;;;;5.40;2.83;;;7.10;29.20;;;;;;5031821;28;20436;-71
2024/02/20 04:48:14;;;;;;;4.77;2.10;;;7.20;29.20;;;;;;5031678;28;20252;-71
2024/02/20 04:50:40;;;;;;;4.90;2.20;;;7.20;29.70;;;;;;5031295;28;20414;-70
2024/02/20 04:53:08;;;;;;;5.37;3.10;;;7.10;30.10;;;;;;5031342;28;20416;-71
2024/02/20 04:55:34;;;;;;;11.60;3.03;;;7.10;31.30;;;;;;5030979;28;20571;-70
2024/02/20 04:58:00;;;;;;;4.20;2.60;;;7.10;31.80;;;;;;5031357;28;20520;-71
2024/02/20 05:00:25;;;;;;;6.10;3.50;;;7.10;31.30;;;;;;5029702;28;20424;-71
2024/02/20 05:02:51;;;;;;;4.00;2.70;;;7.00;31.00;;;;;;5031265;28;20179;-71
2024/02/20 05:05:17;;;;;;;2.90;1.97;;;7.00;30.70;;;;;;5031135;28;20220;-71
2024/02/20 05:07:42;;;;;;;8.53;3.23;;;7.00;32.80;;;;;;5030628;28;20228;-70
2024/02/20 05:10:08;;;;;;;4.17;2.03;;;7.00;31.30;;;;;;5045975;28;20801;-71
2024/02/20 05:12:36;;;;;;;3.33;2.47;;;7.00;30.80;;;;;;5029496;28;20175;-71
2024/02/20 05:15:03;;;;;;;6.17;2.70;;;7.10;29.70;;;;;;5029578;28;20216;-71
2024/02/20 05:17:28;;;;;;;11.70;2.97;;;7.10;29.90;;;;;;5029974;28;20430;-70
2024/02/20 05:19:54;;;;;;;5.17;2.33;;;7.00;29.30;;;;;;5029483;28;20846;-71
2024/02/20 05:22:20;;;;;;;6.37;2.47;;;7.00;27.80;;;;;;5031222;28;20176;-72
2024/02/20 05:24:45;;;;;;;4.73;3.40;;;6.90;27.90;;;;;;5029772;28;20208;-71
2024/02/20 05:27:12;;;;;;;3.60;2.30;;;6.90;27.90;;;;;;5032730;28;20518;-70
2024/02/20 05:29:37;;;;;;;3.80;1.87;;;6.90;28.60;;;;;;5033063;28;20331;-71
2024/02/20 05:32:04;;;;;;;3.10;1.97;;;6.90;27.30;;;;;;5049013;28;20960;-71
2024/02/20 05:34:29;;;;;;;4.53;3.10;;;6.80;28.10;;;;;;5030938;28;20430;-71
2024/02/20 05:36:55;;;;;;;5.63;1.80;;;6.90;28.10;;;;;;5030835;28;20415;-70
2024/02/20 05:39:20;;;;;;;5.87;3.07;;;6.80;26.70;;;;;;5031134;28;20230;-71
2024/02/20 05:41:46;;;;;;;4.70;2.43;;;6.70;28.00;;;;;;5030887;28;20175;-71
2024/02/20 05:44:12;;;;;;;4.80;2.40;;;6.70;28.20;;;;;;5029518;28;20544;-72
2024/02/20 05:46:39;;;;;;;8.47;2.60;;;6.70;29.40;;;;;;5030607;28;20195;-69
2024/02/20 05:49:05;;;;;;;6.60;2.20;;;6.70;28.10;;;;;;5030541;28;20226;-71
2024/02/20 05:51:32;;;;;;;3.37;1.90;;;6.80;27.30;;;;;;5030746;28;20408;-70
2024/02/20 05:53:58;;;;;;;7.03;2.33;;;6.70;27.60;;;;;;5030315;28;20529;-69
2024/02/20 05:56:24;;;;;;;4.40;2.63;;;6.50;26.00;;;;;;5028942;28;20426;-70
2024/02/20 05:58:50;;;;;;;4.67;2.60;;;6.40;26.40;;;;;;5029052;28;20426;-70
2024/02/20 06:01:15;;;;;;;6.63;3.07;;;6.30;27.00;;;;;;5031044;28;20255;-70
2024/02/20 06:03:43;;;;;;;4.10;1.97;;;6.30;28.70;;;;;;5030499;28;20226;-72
2024/02/20 06:06:09;;;;;;;6.10;2.10;;;6.20;28.10;;;;;;5028935;28;20893;-70
2024/02/20 06:08:42;;;;;;;10.53;3.33;;;6.20;27.70;;;;;;5030415;28;20454;-70
2024/02/20 06:11:14;;;;;;;7.70;2.40;;;6.20;28.00;;;;;;5031008;28;20488;-70
2024/02/20 06:13:41;;;;;;;10.90;2.40;;;6.20;27.60;;;;;;5030128;28;20420;-71
2024/02/20 06:16:07;;;;;;;6.37;2.70;;;6.20;26.50;;;;;;5031174;28;20471;-70
2024/02/20 06:18:32;;;;;;;6.00;2.40;;;6.10;26.10;;;;;;5028748;28;20426;-71
2024/02/20 06:21:01;;;;;;;5.53;2.63;;;6.20;25.40;;;;;;5032788;28;20832;-70
2024/02/20 06:23:27;;;;;;;7.13;2.73;;;6.20;25.10;;;;;;5033955;28;20984;-71
2024/02/20 06:25:52;;;;;;;6.07;2.30;;;6.20;25.60;;;;;;5034194;28;20409;-71
2024/02/20 06:28:20;;;;;;;7.83;2.80;;;6.20;24.70;;;;;;5034509;28;20349;-71
2024/02/20 06:30:47;;;;;;;9.20;2.23;;;6.20;23.60;;;;;;5032874;28;20327;-71
2024/02/20 06:33:13;;;;;;;3.90;2.20;;;6.20;22.90;;;;;;5034691;28;20526;-72
2024/02/20 06:35:39;;;;;;;4.77;2.70;;;6.20;23.50;;;;;;5034382;28;20457;-72
2024/02/20 06:38:04;;;;;;;5.67;1.93;;;6.20;23.40;;;;;;5034153;28;20422;-71
2024/02/20 06:40:30;;;;;;;8.70;2.83;;;6.20;24.30;;;;;;5033848;28;20172;-71
2024/02/20 06:42:56;;;;;;;10.83;3.70;;;6.20;23.90;;;;;;5032512;28;20270;-71
2024/02/20 06:45:21;;;;;;;5.30;3.20;;;6.30;24.30;;;;;;5032647;28;20583;-72
2024/02/20 06:47:48;;;;;;;11.63;2.60;;;6.20;24.30;;;;;;5032469;28;20208;-71
2024/02/20 06:50:13;;;;;;;5.03;2.60;;;6.30;23.70;;;;;;5033204;28;20172;-71
2024/02/20 06:52:40;;;;;;;8.43;3.10;;;6.30;22.60;;;;;;5033462;28;20814;-71
2024/02/20 06:55:10;;;;;;;4.23;2.27;;;6.30;21.00;;;;;;5033538;28;20226;-70
2024/02/20 06:57:39;;;;;;;7.20;2.37;;;6.40;21.50;;;;;;5033726;28;20427;-72
2024/02/20 07:00:12;;;;;;;7.17;2.37;;;6.40;21.00;;;;;;5033127;28;20414;-71
2024/02/20 07:02:44;;;;;;;3.73;2.13;;;6.40;21.00;;;;;;5033545;28;20424;-71
2024/02/20 07:05:11;;;;;;;7.77;2.77;;;6.50;19.50;;;;;;5033044;28;20511;-71
2024/02/20 07:07:40;;;;;;;4.17;2.23;;;6.50;19.50;;;;;;5033485;28;20825;-71
2024/02/20 07:10:09;;;;;;;3.60;2.60;;;6.50;19.00;;;;;;5033177;28;20492;-71
2024/02/20 07:12:38;;;;;;;5.87;3.03;;;6.60;19.40;;;;;;5033114;28;20508;-71
2024/02/20 07:15:06;;;;;;;6.00;2.37;;;6.60;18.70;;;;;;5031526;28;20801;-72
2024/02/20 07:17:35;;;;;;;9.63;2.70;;;6.70;18.50;;;;;;5031475;28;20476;-71
2024/02/20 07:20:03;;;;;;;6.00;2.20;;;6.70;18.30;;;;;;5033035;28;20482;-71
2024/02/20 07:22:29;;;;;;;7.03;2.57;;;6.70;18.20;;;;;;5031619;28;20803;-71
2024/02/20 07:24:55;;;;;;;3.80;2.10;;;6.80;17.70;;;;;;5033000;28;20462;-71
2024/02/20 07:27:21;;;;;;;4.30;1.83;;;6.80;17.40;;;;;;5048332;28;20454;-71
2024/02/20 07:29:48;;;;;;;5.93;2.33;;;6.90;17.10;;;;;;5032224;28;20184;-71
2024/02/20 07:32:13;;;;;;;3.97;2.00;;;6.90;15.70;;;;;;5031709;28;20207;-71
2024/02/20 07:34:39;;;;;;;5.17;2.30;;;6.90;16.00;;;;;;5032634;28;20466;-72
2024/02/20 07:37:07;;;;;;;5.07;2.67;;;7.00;16.30;;;;;;5031501;28;20233;-72
2024/02/20 07:39:33;;;;;;;7.43;2.80;;;7.10;14.60;;;;;;5032547;28;20309;-72
2024/02/20 07:41:59;;;;;;;6.83;2.77;;;7.10;14.30;;;;;;5032416;28;20452;-71
2024/02/20 07:44:25;;;;;;;4.87;1.97;;;7.10;14.20;;;;;;5029729;28;20470;-70
2024/02/20 07:46:51;;;;;;;10.27;2.13;;;7.10;14.50;;;;;;5027845;28;20201;-71
2024/02/20 07:49:17;;;;;;;5.20;2.63;;;7.20;14.10;;;;;;5028531;28;20945;-71
2024/02/20 07:51:42;;;;;;;3.00;1.70;;;7.20;13.00;;;;;;5028013;28;20424;-72
2024/02/20 07:54:08;;;;;;;4.67;2.43;;;7.20;12.40;;;;;;5026714;28;20224;-72
2024/02/20 07:56:33;;;;;;;5.80;2.70;;;7.30;12.80;;;;;;5029574;28;20293;-71
2024/02/20 07:58:59;;;;;;;8.00;2.70;;;7.30;11.90;;;;;;5032036;28;20538;-72
2024/02/20 08:01:25;;;;;;;3.13;2.23;;;7.20;12.50;;;;;;5032396;28;20194;-72
2024/02/20 08:03:53;;;;;;;7.77;2.77;;;7.30;12.20;;;;;;5032351;28;20197;-72
2024/02/20 08:06:22;;;;;;;4.27;1.97;;;7.20;10.70;;;;;;5025639;28;20217;-72
2024/02/20 08:08:49;;;;;;;4.10;2.00;;;7.40;11.40;;;;;;5025434;28;20420;-71
2024/02/20 08:11:15;;;;;;;4.73;1.50;;;7.50;9.80;;;;;;5036841;28;20425;-72
2024/02/20 08:13:42;;;;;;;3.30;2.70;;;7.40;9.80;;;;;;5031302;28;20951;-71
2024/02/20 08:16:13;;;;;;;9.70;3.40;;;7.50;8.60;;;;;;5031684;28;20440;-71
2024/02/20 08:18:42;;;;;;;5.53;2.37;;;7.50;8.80;;;;;;5031809;28;20508;-73
2024/02/20 08:21:12;;;;;;;7.43;2.40;;;7.60;8.70;;;;;;5031484;28;20435;-73
2024/02/20 08:23:42;;;;;;;3.63;2.23;;;7.70;7.20;;;;;;5031889;28;20424;-72
2024/02/20 08:26:10;;;;;;;4.97;2.30;;;7.70;7.20;;;;;;5032093;28;20940;-72
2024/02/20 08:28:36;;;;;;;12.67;4.27;;;7.70;7.10;;;;;;5031733;28;20432;-71
2024/02/20 08:31:02;;;;;;;9.90;2.77;;;7.90;7.60;;;;;;5014410;28;20433;-72
2024/02/20 08:33:27;;;;;;;9.40;3.33;;;8.00;6.10;;;;;;5010532;28;20552;-72
2024/02/20 08:35:53;;;;;;;4.43;1.90;;;8.10;4.10;;;;;;5024112;28;20191;-71
2024/02/20 08:38:20;;;;;;;4.43;2.27;;;8.10;4.70;;;;;;5023961;28;20189;-71
2024/02/20 08:40:45;;;;;;;6.93;2.80;;;8.20;3.70;;;;;;5024781;28;20535;-71
2024/02/20 08:43:12;;;;;;;5.13;2.00;;;8.30;3.80;;;;;;5020765;28;20944;-72
2024/02/20 08:45:40;;;;;;;12.30;3.10;;;8.40;2.00;;;;;;5018065;28;20701;-72
2024/02/20 08:48:07;;;;;;;6.13;2.43;;;8.60;2.20;;;;;;5030590;28;20520;-71
2024/02/20 08:50:32;;;;;;;8.23;2.53;;;8.70;1.60;;;;;;5029463;28;20541;-72
2024/02/20 08:53:06;;;;;;;8.27;2.63;;;8.70;1.00;;;;;;5031872;28;20453;-71
2024/02/20 08:55:33;;;;;;;5.87;2.43;;;8.70;1.60;;;;;;5031099;28;20283;-72
2024/02/20 08:57:59;;;;;;;6.40;3.10;;;9.00;1.00;;;;;;5031367;28;20936;-72
2024/02/20 09:00:24;;;;;;;5.27;2.37;;;9.00;1.00;;;;;;5023543;28;20453;-72
2024/02/20 09:02:50;;;;;;;5.37;2.43;;;9.10;1.00;;;;;;5031390;28;20183;-71
2024/02/20 09:05:16;;;;;;;6.60;3.10;;;9.20;1.00;;;;;;5034889;28;20226;-72
2024/02/20 09:07:42;;;;;;;5.37;2.67;;;9.40;1.00;;;;;;5034810;28;20480;-72
2024/02/20 09:10:08;;;;;;;5.93;2.63;;;9.50;1.00;;;;;;5030595;28;20677;-72
2024/02/20 09:12:34;;;;;;;7.83;3.20;;;9.50;1.00;;;;;;5032549;28;20418;-71
2024/02/20 09:15:01;;;;;;;7.40;2.37;;;9.50;1.00;;;;;;5026642;28;20454;-72
2024/02/20 09:17:30;;;;;;;7.90;2.83;;;9.70;1.00;;;;;;5031984;28;20975;-71
2024/02/20 09:19:56;;;;;;;7.03;3.07;;;9.60;1.00;;;;;;5031180;28;20430;-72
2024/02/20 09:22:21;;;;;;;7.07;3.43;;;9.80;1.00;;;;;;5032426;28;20453;-72
2024/02/20 09:24:47;;;;;;;7.53;2.67;;;10.10;1.00;;;;;;5029350;28;20574;-72
2024/02/20 09:27:12;;;;;;;4.83;2.43;;;10.00;1.00;;;;;;5031578;28;20232;-72
2024/02/20 09:29:41;;;;;;;7.00;3.00;;;10.40;1.00;;;;;;5030883;28;20183;-71
2024/02/20 09:32:10;;;;;;;7.37;2.80;;;10.40;1.00;;;;;;5031213;28;20258;-72
2024/02/20 09:34:35;;;;;;;11.43;3.00;;;10.30;1.00;;;;;;5030743;28;20540;-71
2024/02/20 09:37:02;;;;;;;6.33;3.10;;;10.30;1.00;;;;;;5027346;28;20823;-72
2024/02/20 09:39:28;;;;;;;6.83;2.90;;;10.10;1.00;;;;;;5011401;28;20703;-71
2024/02/20 09:41:54;;;;;;;4.50;2.27;;;10.10;1.00;;;;;;5011674;28;20453;-69
2024/02/20 09:44:20;;;;;;;8.70;3.30;;;9.90;1.00;;;;;;5022866;28;20701;-70
2024/02/20 09:46:55;;;;;;;6.07;3.30;;;10.00;1.00;;;;;;5032196;28;20202;-70
2024/02/20 09:49:22;;;;;;;6.30;2.87;;;9.90;1.00;;;;;;5030434;28;20467;-69
2024/02/20 09:51:48;;;;;;;6.67;2.63;;;9.60;1.00;;;;;;5029462;28;20434;-69
2024/02/20 09:54:14;;;;;;;5.90;3.20;;;9.50;1.00;;;;;;5027699;28;20870;-69
2024/02/20 09:56:42;;;;;;;5.90;2.80;;;9.60;1.00;;;;;;5026020;28;20797;-70
2024/02/20 09:59:08;;;;;;;5.20;2.07;;;9.60;1.00;;;;;;5025258;28;20417;-70
2024/02/20 10:01:35;;;;;;;10.47;3.47;;;9.50;1.00;;;;;;5035364;28;20424;-70
2024/02/20 10:04:08;;;;;;;8.33;3.20;;;9.60;1.00;;;;;;5030186;28;20445;-71
2024/02/20 10:06:34;;;;;;;7.13;3.00;;;9.70;1.00;;;;;;5030407;28;20548;-70
2024/02/20 10:09:00;;;;;;;10.13;3.00;;;9.60;1.00;;;;;;5031287;28;20468;-71
2024/02/20 10:11:26;;;;;;;11.33;3.47;;;9.80;1.00;;;;;;5027444;28;20421;-71
2024/02/20 10:13:53;;;;;;;8.53;3.67;;;9.90;1.00;;;;;;5029538;28;20968;-71
2024/02/20 10:16:19;;;;;;;8.70;2.70;;;9.90;1.00;;;;;;5030395;28;20176;-70
2024/02/20 10:19:01;;;;;;;12.87;2.80;;;10.00;1.00;;;;;;5028972;28;20768;-71
2024/02/20 10:21:27;;;;;;;7.00;3.00;;;9.90;1.00;;;;;;5029109;28;20422;-69
2024/02/20 10:24:09;;;;;;;5.90;3.40;;;10.00;1.00;;;;;;5030803;28;20442;-70
2024/02/20 10:26:37;;;;;;;8.73;2.83;;;10.00;1.00;;;;;;5029133;28;20466;-71
2024/02/20 10:29:03;;;;;;;4.80;2.00;;;10.00;1.00;;;;;;5030012;28;20410;-70
2024/02/20 10:31:31;;;;;;;11.13;3.23;;;10.10;1.00;;;;;;5009332;28;20441;-71
2024/02/20 10:33:59;;;;;;;5.70;3.03;;;10.30;1.00;;;;;;5009969;28;20492;-71
2024/02/20 10:36:26;;;;;;;7.73;2.97;;;10.10;1.00;;;;;;5024464;28;20824;-72
2024/02/20 10:39:05;;;;;;;7.23;3.03;;;10.20;1.00;;;;;;5030047;28;20764;-72
2024/02/20 10:41:31;;;;;;;9.33;3.53;;;10.30;1.00;;;;;;5029912;28;21012;-71
2024/02/20 10:44:00;;;;;;;8.33;3.47;;;10.00;1.00;;;;;;5029948;28;20438;-71
2024/02/20 10:46:27;;;;;;;8.27;3.10;;;10.20;1.00;;;;;;5029703;28;20708;-71
2024/02/20 10:48:58;;;;;;;4.13;2.30;;;10.30;1.00;;;;;;5028195;28;20505;-71
2024/02/20 10:51:28;;;;;;;7.20;2.90;;;10.20;1.00;;;;;;5029548;28;20482;-72
2024/02/20 10:53:55;;;;;;;6.03;3.33;;;10.30;1.00;;;;;;5028124;28;20801;-70
2024/02/20 10:56:21;;;;;;;13.40;3.30;;;10.50;1.00;;;;;;5029581;28;20413;-71
2024/02/20 10:58:49;;;;;;;6.83;3.83;;;10.70;1.00;;;;;;5030129;28;20572;-70
2024/02/20 11:01:15;;;;;;;3.70;2.40;;;10.70;1.00;;;;;;5030709;28;20430;-72
2024/02/20 11:03:42;;;;;;;6.07;2.93;;;10.70;1.00;;;;;;5030645;28;20490;-71
2024/02/20 11:06:09;;;;;;;6.27;3.10;;;10.90;1.00;;;;;;5036386;28;20418;-70
2024/02/20 11:08:35;;;;;;;4.30;2.70;;;11.00;1.00;;;;;;5035396;28;20524;-70
2024/02/20 11:11:14;;;;;;;8.43;2.60;;;10.90;1.00;;;;;;5031441;28;20438;-72
2024/02/20 11:13:56;;;;;;;7.73;3.80;;;11.00;1.00;;;;;;5031418;28;20183;-71
2024/02/20 11:16:33;;;;;;;6.40;2.93;;;10.80;1.00;;;;;;5032131;28;20472;-71
2024/02/20 11:18:58;;;;;;;5.93;2.83;;;10.80;1.00;;;;;;5025081;28;20414;-72
2024/02/20 11:21:28;;;;;;;8.57;3.60;;;10.80;1.00;;;;;;5032624;28;20939;-72
2024/02/20 11:23:54;;;;;;;9.67;3.67;;;11.00;1.00;;;;;;5033512;28;20582;-71
2024/02/20 11:26:27;;;;;;;11.63;2.73;;;10.90;1.00;;;;;;5028229;28;20902;-72
2024/02/20 11:28:57;;;;;;;3.80;2.73;;;11.00;1.00;;;;;;5015824;28;20499;-73
2024/02/20 11:31:27;;;;;;;5.20;2.33;;;11.00;1.00;;;;;;5016881;28;20828;-73
2024/02/20 11:33:57;;;;;;;6.30;3.87;;;11.00;1.00;;;;;;5013058;28;20447;-73
2024/02/20 11:36:23;;;;;;;5.10;2.27;;;10.80;1.00;;;;;;5026583;28;20414;-73
2024/02/20 11:39:03;;;;;;;4.73;2.77;;;10.70;1.00;;;;;;5032529;28;20418;-72
2024/02/20 11:41:32;;;;;;;7.80;3.23;;;10.80;1.00;;;;;;5031185;28;20443;-72
2024/02/20 11:44:05;;;;;;;13.47;3.53;;;10.90;1.00;;;;;;5032414;28;20454;-73
2024/02/20 11:46:32;;;;;;;7.37;3.30;;;11.20;1.00;;;;;;5025713;28;20506;-72
2024/02/20 11:48:59;;;;;;;10.53;2.50;;;11.50;1.00;;;;;;5012626;28;20561;-73
2024/02/20 11:51:25;;;;;;;4.20;1.93;;;11.90;1.00;;;;;;5032314;28;20457;-72
2024/02/20 11:54:02;;;;;;;3.60;2.80;;;11.90;1.00;;;;;;5032026;28;20925;-73
2024/02/20 11:56:34;;;;;;;6.97;2.87;;;12.20;1.00;;;;;;5031923;28;20178;-74
2024/02/20 11:59:01;;;;;;;5.83;2.90;;;12.30;1.00;;;;;;5014918;28;20415;-73
2024/02/20 12:01:28;;;;;;;7.83;3.00;;;12.20;1.00;;;;;;5012644;28;20513;-72
2024/02/20 12:03:54;;;;;;;9.83;3.40;;;11.90;1.00;;;;;;5022340;28;20461;-73
2024/02/20 12:06:27;;;;;;;10.37;3.03;;;11.60;1.00;;;;;;5013339;28;20469;-72
2024/02/20 12:08:55;;;;;;;7.20;2.83;;;11.40;1.00;;;;;;5012231;28;20414;-73
2024/02/20 12:11:29;;;;;;;5.50;2.27;;;11.50;1.00;;;;;;5028315;28;20434;-72
2024/02/20 12:13:58;;;;;;;6.20;2.70;;;11.50;1.00;;;;;;5013292;28;20434;-73
2024/02/20 12:16:26;;;;;;;4.70;2.43;;;11.30;1.00;;;;;;5012961;28;20931;-73
2024/02/20 12:18:53;;;;;;;5.40;3.53;;;11.20;1.00;;;;;;5027971;28;20521;-73
2024/02/20 12:21:31;;;;;;;5.37;2.90;;;11.30;1.00;;;;;;5028639;28;20473;-74
2024/02/20 12:23:58;;;;;;;10.93;3.27;;;11.30;1.00;;;;;;5013418;28;20446;-73
2024/02/20 12:26:26;;;;;;;5.43;2.67;;;11.50;1.00;;;;;;5012905;28;20428;-73
2024/02/20 12:28:52;;;;;;;5.27;3.27;;;11.40;1.00;;;;;;5012790;28;20426;-72
2024/02/20 12:31:25;;;;;;;5.03;3.20;;;11.10;1.00;;;;;;5012550;28;20415;-73
2024/02/20 12:33:51;;;;;;;7.50;2.93;;;11.10;1.00;;;;;;5012802;28;20521;-73
2024/02/20 12:36:20;;;;;;;5.33;2.73;;;11.20;1.00;;;;;;5012706;28;20424;-75
2024/02/20 12:38:46;;;;;;;5.60;2.90;;;11.50;1.00;;;;;;5027870;28;20434;-73
2024/02/20 12:41:12;;;;;;;6.83;2.73;;;11.80;1.00;;;;;;5028576;28;20423;-72
2024/02/20 12:43:38;;;;;;;7.60;3.17;;;12.00;1.00;;;;;;5012901;28;20538;-73
2024/02/20 12:46:05;;;;;;;3.40;2.53;;;12.20;1.00;;;;;;5028270;28;20230;-73
2024/02/20 12:48:31;;;;;;;5.00;2.17;;;12.60;1.00;;;;;;5012798;28;20235;-73
2024/02/20 12:50:59;;;;;;;4.67;2.70;;;12.50;1.00;;;;;;5012532;28;20798;-73
2024/02/20 12:53:24;;;;;;;15.00;4.03;;;12.70;1.00;;;;;;5012768;28;20188;-74
2024/02/20 12:55:50;;;;;;;6.53;2.90;;;12.30;1.00;;;;;;5012892;28;20442;-74